createdAt,value
2018-06-20T00:00:43.507Z,19.90
2018-06-20T00:05:40.953Z,19.90
2018-06-20T00:08:09.903Z,20.00
2018-06-20T00:10:38.798Z,20.00
2018-06-20T00:13:07.743Z,20.00
2018-06-20T00:15:36.724Z,20.00
2018-06-20T00:18:05.849Z,19.90
2018-06-20T00:20:34.792Z,19.80
2018-06-20T00:23:03.766Z,19.80
2018-06-20T00:25:32.737Z,19.80
2018-06-20T00:28:01.731Z,19.70
2018-06-20T00:30:30.718Z,19.60
2018-06-20T00:32:59.643Z,19.50
2018-06-20T00:35:28.610Z,19.40
2018-06-20T00:37:57.596Z,19.40
2018-06-20T00:40:26.554Z,19.30
2018-06-20T00:42:55.503Z,19.30
2018-06-20T00:45:24.493Z,19.30
2018-06-20T00:47:53.508Z,19.30
2018-06-20T00:50:22.482Z,19.30
2018-06-20T00:52:51.506Z,19.40
2018-06-20T00:55:31.369Z,19.40
2018-06-20T01:00:28.859Z,19.40
2018-06-20T01:02:57.784Z,19.30
2018-06-20T01:05:26.711Z,19.30
2018-06-20T01:07:55.654Z,19.20
2018-06-20T01:10:24.693Z,19.10
2018-06-20T01:12:53.674Z,19.10
2018-06-20T01:15:22.654Z,19.00
2018-06-20T01:17:51.625Z,19.00
2018-06-20T01:20:20.573Z,19.00
2018-06-20T01:22:49.581Z,19.00
2018-06-20T01:25:18.658Z,19.00
2018-06-20T01:27:47.617Z,18.90
2018-06-20T01:30:16.701Z,18.80
2018-06-20T01:32:45.826Z,18.80
2018-06-20T01:35:14.922Z,18.70
2018-06-20T01:37:43.889Z,18.70
2018-06-20T01:40:12.848Z,18.70
2018-06-20T01:42:41.846Z,18.70
2018-06-20T01:45:10.773Z,18.70
2018-06-20T01:47:39.709Z,18.70
2018-06-20T01:50:08.630Z,18.70
2018-06-20T01:52:37.578Z,18.70
2018-06-20T01:57:35.780Z,18.70
2018-06-20T02:02:33.899Z,18.60
2018-06-20T02:05:02.832Z,18.40
2018-06-20T02:07:31.748Z,18.40
2018-06-20T02:10:00.711Z,18.40
2018-06-20T02:12:29.665Z,18.50
2018-06-20T02:14:58.673Z,18.60
2018-06-20T02:17:27.667Z,18.50
2018-06-20T02:19:56.653Z,18.40
2018-06-20T02:22:25.665Z,18.30
2018-06-20T02:24:54.735Z,18.30
2018-06-20T02:27:23.717Z,18.30
2018-06-20T02:29:52.647Z,18.30
2018-06-20T02:32:21.631Z,18.20
2018-06-20T02:34:50.591Z,18.10
2018-06-20T02:37:20.552Z,18.10
2018-06-20T02:39:49.685Z,18.00
2018-06-20T02:42:18.675Z,17.90
2018-06-20T02:44:47.639Z,17.90
2018-06-20T02:49:45.299Z,17.80
2018-06-20T02:52:14.382Z,17.70
2018-06-20T02:54:43.404Z,17.60
2018-06-20T02:57:12.370Z,17.70
2018-06-20T02:59:41.370Z,17.70
2018-06-20T03:02:10.351Z,17.60
2018-06-20T03:04:39.332Z,17.60
2018-06-20T03:07:08.341Z,17.70
2018-06-20T03:09:37.351Z,17.70
2018-06-20T03:12:06.420Z,17.70
2018-06-20T03:14:35.400Z,17.70
2018-06-20T03:17:05.432Z,17.80
2018-06-20T03:19:34.486Z,17.80
2018-06-20T03:22:03.540Z,17.80
2018-06-20T03:24:32.520Z,17.80
2018-06-20T03:27:01.503Z,17.70
2018-06-20T03:29:30.431Z,17.70
2018-06-20T03:34:28.004Z,17.70
2018-06-20T03:39:25.985Z,17.70
2018-06-20T03:41:55.042Z,17.70
2018-06-20T03:44:24.056Z,17.70
2018-06-20T03:46:53.022Z,17.70
2018-06-20T03:49:21.944Z,17.70
2018-06-20T03:51:50.895Z,17.70
2018-06-20T03:54:19.820Z,17.70
2018-06-20T03:56:48.775Z,17.70
2018-06-20T03:59:17.709Z,17.70
2018-06-20T04:01:46.632Z,17.70
2018-06-20T04:04:15.588Z,17.80
2018-06-20T04:06:44.554Z,17.80
2018-06-20T04:09:14.134Z,17.80
2018-06-20T04:11:43.818Z,17.70
2018-06-20T04:16:41.649Z,17.60
2018-06-20T04:19:10.600Z,17.50
2018-06-20T04:21:39.542Z,17.50
2018-06-20T04:24:08.467Z,17.50
2018-06-20T04:29:06.021Z,17.50
2018-06-20T04:31:34.935Z,17.50
2018-06-20T04:36:32.382Z,17.50
2018-06-20T04:39:01.449Z,17.40
2018-06-20T04:41:30.429Z,17.40
2018-06-20T04:43:59.432Z,17.40
2018-06-20T04:46:28.418Z,17.40
2018-06-20T04:48:57.833Z,17.40
2018-06-20T04:51:26.913Z,17.40
2018-06-20T04:53:56.489Z,17.40
2018-06-20T04:56:25.524Z,17.50
2018-06-20T04:58:54.464Z,17.50
2018-06-20T05:03:51.989Z,17.50
2018-06-20T05:06:20.935Z,17.40
2018-06-20T05:11:18.455Z,17.40
2018-06-20T05:13:47.396Z,17.40
2018-06-20T05:18:44.917Z,17.60
2018-06-20T05:21:13.905Z,17.60
2018-06-20T05:23:42.884Z,17.60
2018-06-20T05:26:11.917Z,17.60
2018-06-20T05:28:40.964Z,17.70
2018-06-20T05:31:09.906Z,17.80
2018-06-20T05:33:38.896Z,17.80
2018-06-20T05:36:07.893Z,17.90
2018-06-20T05:38:36.878Z,18.00
2018-06-20T05:41:05.949Z,18.10
2018-06-20T05:43:34.913Z,18.10
2018-06-20T05:46:03.868Z,18.20
2018-06-20T05:48:32.792Z,18.30
2018-06-20T05:51:01.760Z,18.30
2018-06-20T05:53:31.117Z,18.40
2018-06-20T05:56:00.121Z,18.50
2018-06-20T05:58:29.078Z,18.50
2018-06-20T06:00:58.023Z,18.60
2018-06-20T06:03:26.955Z,18.70
2018-06-20T06:06:15.101Z,18.90
2018-06-20T06:08:44.570Z,18.90
2018-06-20T06:11:13.563Z,19.00
2018-06-20T06:13:42.516Z,19.10
2018-06-20T06:16:11.428Z,19.10
2018-06-20T06:18:40.407Z,19.20
2018-06-20T06:21:09.384Z,19.20
2018-06-20T06:23:38.348Z,19.30
2018-06-20T06:26:07.303Z,19.40
2018-06-20T06:28:36.249Z,19.50
2018-06-20T06:31:05.324Z,19.50
2018-06-20T06:33:34.299Z,19.60
2018-06-20T06:38:31.817Z,19.70
2018-06-20T06:41:00.817Z,19.80
2018-06-20T06:43:29.714Z,19.80
2018-06-20T06:45:58.644Z,19.90
2018-06-20T06:50:56.079Z,20.00
2018-06-20T06:53:25.057Z,20.10
2018-06-20T06:55:54.077Z,20.20
2018-06-20T06:58:22.984Z,20.30
2018-06-20T07:00:51.917Z,20.40
2018-06-20T07:03:20.967Z,20.50
2018-06-20T07:05:49.913Z,20.60
2018-06-20T07:08:18.855Z,20.70
2018-06-20T07:13:16.261Z,20.80
2018-06-20T07:15:45.158Z,20.90
2018-06-20T07:18:14.106Z,21.00
2018-06-20T07:23:11.692Z,21.10
2018-06-20T07:28:09.207Z,21.40
2018-06-20T07:30:38.188Z,21.40
2018-06-20T07:33:07.200Z,21.60
2018-06-20T07:35:36.287Z,21.60
2018-06-20T07:38:05.180Z,21.70
2018-06-20T07:40:34.212Z,21.80
2018-06-20T07:43:03.182Z,21.90
2018-06-20T07:45:32.205Z,21.90
2018-06-20T07:50:29.649Z,22.20
2018-06-20T07:52:58.624Z,22.20
2018-06-20T07:55:27.641Z,22.30
2018-06-20T07:57:56.717Z,22.40
2018-06-20T08:00:30.821Z,22.50
2018-06-20T08:03:19.480Z,22.60
2018-06-20T08:05:53.522Z,22.80
2018-06-20T08:09:28.250Z,22.90
2018-06-20T08:12:02.380Z,23.00
2018-06-20T08:14:36.393Z,23.10
2018-06-20T08:19:43.469Z,23.20
2018-06-20T08:22:12.494Z,23.30
2018-06-20T08:24:52.605Z,23.30
2018-06-20T08:27:21.541Z,23.40
2018-06-20T08:29:50.472Z,23.50
2018-06-20T08:32:19.545Z,23.60
2018-06-20T08:34:48.445Z,23.70
2018-06-20T08:37:17.419Z,23.80
2018-06-20T08:39:47.861Z,23.90
2018-06-20T08:42:16.769Z,24.00
2018-06-20T08:44:46.045Z,24.10
2018-06-20T08:47:14.996Z,24.20
2018-06-20T08:52:12.529Z,24.40
2018-06-20T08:54:41.525Z,24.40
2018-06-20T08:57:10.439Z,24.50
2018-06-20T08:59:39.462Z,24.60
2018-06-20T09:02:08.674Z,24.70
2018-06-20T09:04:42.809Z,24.80
2018-06-20T09:07:17.067Z,24.90
2018-06-20T09:09:51.181Z,25.00
2018-06-20T09:18:35.314Z,25.20
2018-06-20T09:21:04.320Z,25.20
2018-06-20T09:23:33.299Z,25.30
2018-06-20T09:26:02.264Z,25.30
2018-06-20T09:28:31.239Z,25.40
2018-06-20T09:33:28.719Z,25.50
2018-06-20T09:35:57.660Z,25.60
2018-06-20T09:38:26.644Z,25.60
2018-06-20T09:40:55.594Z,25.70
2018-06-20T09:43:24.580Z,25.70
2018-06-20T09:48:22.062Z,25.90
2018-06-20T09:50:56.913Z,26.00
2018-06-20T09:53:25.949Z,26.10
2018-06-20T09:55:55.075Z,26.10
2018-06-20T10:00:57.556Z,26.30
2018-06-20T10:03:31.804Z,26.30
2018-06-20T10:06:06.021Z,26.50
2018-06-20T10:08:40.105Z,26.50
2018-06-20T10:13:45.864Z,26.70
2018-06-20T10:16:14.865Z,26.80
2018-06-20T10:18:43.862Z,26.90
2018-06-20T10:21:12.885Z,26.90
2018-06-20T10:23:41.903Z,27.00
2018-06-20T10:26:11.026Z,27.10
2018-06-20T10:31:08.636Z,27.20
2018-06-20T10:33:37.601Z,27.10
2018-06-20T10:36:06.693Z,27.20
2018-06-20T10:41:04.234Z,27.40
2018-06-20T10:43:33.165Z,27.50
2018-06-20T10:46:07.369Z,27.60
2018-06-20T10:48:36.370Z,27.70
2018-06-20T10:53:33.763Z,27.90
2018-06-20T10:56:02.704Z,28.00
2018-06-20T10:58:36.927Z,28.00
2018-06-20T11:01:11.216Z,28.10
2018-06-20T11:03:45.326Z,28.20
2018-06-20T11:06:19.482Z,28.40
2018-06-20T11:11:27.160Z,28.40
2018-06-20T11:13:56.222Z,28.50
2018-06-20T11:16:25.516Z,28.70
2018-06-20T11:18:56.026Z,28.80
2018-06-20T11:21:24.956Z,29.00
2018-06-20T11:23:53.926Z,29.10
2018-06-20T11:26:22.853Z,29.10
2018-06-20T11:28:51.864Z,29.30
2018-06-20T11:31:20.874Z,29.40
2018-06-20T11:38:46.865Z,29.90
2018-06-20T11:41:15.947Z,30.00
2018-06-20T11:43:44.915Z,30.00
2018-06-20T11:53:44.805Z,30.10
2018-06-20T11:56:13.782Z,30.20
2018-06-20T11:58:48.004Z,30.20
2018-06-20T12:01:21.993Z,30.20
2018-06-20T12:03:56.224Z,30.20
2018-06-20T12:06:30.427Z,30.20
2018-06-20T12:11:38.348Z,30.00
2018-06-20T12:16:40.278Z,30.00
2018-06-20T12:19:14.419Z,30.10
2018-06-20T12:21:48.674Z,30.10
2018-06-20T12:24:22.831Z,30.20
2018-06-20T12:26:57.024Z,30.20
2018-06-20T12:29:31.207Z,30.30
2018-06-20T12:32:05.319Z,30.20
2018-06-20T12:34:39.549Z,30.30
2018-06-20T12:37:13.829Z,30.30
2018-06-20T12:42:15.798Z,30.40
2018-06-20T12:44:50.040Z,30.40
2018-06-20T12:47:22.886Z,30.50
2018-06-20T12:49:57.828Z,30.50
2018-06-20T12:52:26.860Z,30.40
2018-06-20T12:54:55.804Z,30.40
2018-06-20T12:57:24.797Z,30.50
2018-06-20T12:59:53.713Z,30.60
2018-06-20T13:02:22.687Z,30.60
2018-06-20T13:04:52.027Z,30.80
2018-06-20T13:07:20.961Z,30.80
2018-06-20T13:09:49.877Z,30.90
2018-06-20T13:17:15.809Z,31.10
2018-06-20T13:19:44.874Z,31.30
2018-06-20T13:22:13.853Z,31.30
2018-06-20T13:24:42.847Z,31.30
2018-06-20T13:27:15.905Z,31.40
2018-06-20T13:34:52.458Z,31.60
2018-06-20T13:37:26.607Z,31.70
2018-06-20T13:40:00.738Z,31.60
2018-06-20T13:43:34.354Z,31.70
2018-06-20T13:46:08.351Z,31.50
2018-06-20T13:51:06.331Z,31.60
2018-06-20T13:56:03.887Z,31.60
2018-06-20T13:58:32.924Z,31.60
2018-06-20T14:01:01.897Z,31.70
2018-06-20T14:03:30.835Z,31.80
2018-06-20T14:05:59.796Z,31.80
2018-06-20T14:08:28.831Z,31.80
2018-06-20T14:10:57.970Z,31.90
2018-06-20T14:13:26.935Z,32.00
2018-06-20T14:15:55.885Z,32.10
2018-06-20T14:18:24.836Z,32.00
2018-06-20T14:25:56.250Z,32.10
2018-06-20T14:28:25.317Z,32.10
2018-06-20T14:30:59.299Z,32.00
2018-06-20T14:33:33.538Z,32.00
2018-06-20T14:39:43.275Z,32.10
2018-06-20T14:43:18.072Z,32.10
2018-06-20T14:45:52.244Z,32.30
2018-06-20T14:50:49.830Z,32.40
2018-06-20T14:53:18.768Z,32.40
2018-06-20T14:55:47.710Z,32.40
2018-06-20T15:00:45.297Z,32.40
2018-06-20T15:03:14.256Z,32.50
2018-06-20T15:05:43.271Z,32.50
2018-06-20T15:08:12.306Z,32.50
2018-06-20T15:10:41.283Z,32.50
2018-06-20T15:13:10.194Z,32.50
2018-06-20T15:15:39.245Z,32.50
2018-06-20T15:18:08.244Z,32.50
2018-06-20T15:20:37.791Z,32.50
2018-06-20T15:23:06.824Z,32.50
2018-06-20T15:28:09.691Z,32.60
2018-06-20T15:30:43.714Z,32.70
2018-06-20T15:33:18.074Z,32.80
2018-06-20T15:40:52.724Z,33.20
2018-06-20T15:43:21.814Z,33.40
2018-06-20T15:45:50.739Z,33.60
2018-06-20T15:48:19.684Z,33.80
2018-06-20T15:53:17.184Z,34.10
2018-06-20T15:55:46.148Z,34.20
2018-06-20T15:58:15.098Z,34.20
2018-06-20T16:00:44.115Z,34.20
2018-06-20T16:03:13.129Z,34.30
2018-06-20T16:08:10.628Z,34.50
2018-06-20T16:10:39.693Z,34.50
2018-06-20T16:15:37.355Z,34.50
2018-06-20T16:18:06.374Z,34.50
2018-06-20T16:20:40.380Z,34.50
2018-06-20T16:23:14.617Z,34.50
2018-06-20T16:25:48.780Z,34.40
2018-06-20T16:28:22.903Z,34.30
2018-06-20T16:30:51.925Z,34.30
2018-06-20T16:33:20.889Z,34.20
2018-06-20T16:35:49.916Z,34.10
2018-06-20T16:38:18.940Z,34.10
2018-06-20T16:40:47.915Z,33.90
2018-06-20T16:43:16.917Z,33.80
2018-06-20T16:55:40.283Z,33.60
2018-06-20T16:58:09.251Z,33.60
2018-06-20T17:00:38.367Z,33.70
2018-06-20T17:03:07.269Z,33.70
2018-06-20T17:08:04.730Z,33.50
2018-06-20T17:10:33.665Z,33.40
2018-06-20T17:13:07.740Z,33.20
2018-06-20T17:15:41.732Z,32.90
2018-06-20T17:18:15.691Z,32.50
2018-06-20T17:20:49.677Z,32.10
2018-06-20T17:23:23.798Z,31.70
2018-06-20T17:25:52.727Z,31.40
2018-06-20T17:28:21.665Z,31.10
2018-06-20T17:35:47.539Z,30.40
2018-06-20T17:38:16.512Z,30.30
2018-06-20T17:40:45.432Z,30.20
2018-06-20T17:43:14.353Z,30.00
2018-06-20T17:45:43.333Z,29.90
2018-06-20T17:48:12.212Z,29.80
2018-06-20T17:50:41.153Z,29.60
2018-06-20T17:53:10.101Z,29.50
2018-06-20T17:55:39.054Z,29.50
2018-06-20T18:00:41.359Z,29.30
2018-06-20T18:03:10.350Z,29.20
2018-06-20T18:05:44.597Z,29.10
2018-06-20T18:08:18.614Z,29.00
2018-06-20T18:10:53.061Z,28.90
2018-06-20T18:13:26.289Z,28.70
2018-06-20T18:16:00.353Z,28.60
2018-06-20T18:18:29.324Z,28.50
2018-06-20T18:20:58.318Z,28.40
2018-06-20T18:23:27.322Z,28.30
2018-06-20T18:25:56.289Z,28.30
2018-06-20T18:28:25.259Z,28.20
2018-06-20T18:30:54.204Z,28.10
2018-06-20T18:33:23.173Z,28.10
2018-06-20T18:35:52.104Z,27.90
2018-06-20T18:43:18.096Z,27.50
2018-06-20T18:45:47.036Z,27.50
2018-06-20T18:48:21.102Z,27.40
2018-06-20T18:50:50.100Z,27.40
2018-06-20T18:53:19.044Z,27.30
2018-06-20T18:55:47.964Z,27.20
2018-06-20T18:58:22.093Z,27.00
2018-06-20T19:03:51.076Z,26.80
2018-06-20T19:06:25.406Z,26.70
2018-06-20T19:08:58.846Z,26.60
2018-06-20T19:11:27.751Z,26.60
2018-06-20T19:13:56.674Z,26.50
2018-06-20T19:16:25.588Z,26.40
2018-06-20T19:18:54.540Z,26.40
2018-06-20T19:23:52.074Z,26.20
2018-06-20T19:26:21.016Z,26.10
2018-06-20T19:28:49.965Z,26.00
2018-06-20T19:31:18.964Z,25.90
2018-06-20T19:33:48.384Z,25.90
2018-06-20T19:36:17.336Z,25.80
2018-06-20T19:38:46.325Z,25.70
2018-06-20T19:41:15.282Z,25.60
2018-06-20T19:43:49.399Z,25.50
2018-06-20T19:46:18.374Z,25.40
2018-06-20T19:51:16.852Z,25.30
2018-06-20T19:53:45.799Z,25.30
2018-06-20T19:56:14.773Z,25.20
2018-06-20T19:58:43.716Z,25.20
2018-06-20T20:01:12.697Z,25.20
2018-06-20T20:03:41.654Z,25.10
2018-06-20T20:06:10.527Z,25.10
2018-06-20T20:08:39.490Z,25.00
2018-06-20T20:11:08.447Z,25.00
2018-06-20T20:13:37.358Z,25.00
2018-06-20T20:16:06.344Z,25.00
2018-06-20T20:18:35.272Z,24.90
2018-06-20T20:23:33.036Z,24.90
2018-06-20T20:26:01.964Z,24.80
2018-06-20T20:28:30.913Z,24.70
2018-06-20T20:30:59.858Z,24.70
2018-06-20T20:33:28.827Z,24.70
2018-06-20T20:35:57.826Z,24.60
2018-06-20T20:38:26.784Z,24.60
2018-06-20T20:40:55.745Z,24.50
2018-06-20T20:43:24.787Z,24.50
2018-06-20T20:45:53.727Z,24.50
2018-06-20T20:48:22.667Z,24.40
2018-06-20T20:50:51.594Z,24.40
2018-06-20T20:53:20.487Z,24.40
2018-06-20T20:55:49.504Z,24.40
2018-06-20T20:58:18.399Z,24.30
2018-06-20T21:00:47.304Z,24.20
2018-06-20T21:03:16.276Z,24.10
2018-06-20T21:05:45.155Z,24.00
2018-06-20T21:08:14.049Z,23.80
2018-06-20T21:10:43.102Z,23.70
2018-06-20T21:13:12.090Z,23.70
2018-06-20T21:18:09.503Z,23.70
2018-06-20T21:20:38.444Z,23.60
2018-06-20T21:25:36.088Z,23.50
2018-06-20T21:28:05.121Z,23.50
2018-06-20T21:30:34.089Z,23.40
2018-06-20T21:33:03.059Z,23.20
2018-06-20T21:35:32.141Z,23.10
2018-06-20T21:38:01.079Z,23.00
2018-06-20T21:42:58.553Z,22.70
2018-06-20T21:47:56.010Z,22.60
2018-06-20T21:50:24.995Z,22.60
2018-06-20T21:52:54.043Z,22.50
2018-06-20T21:55:23.030Z,22.40
2018-06-20T21:57:52.044Z,22.50
2018-06-20T22:00:22.052Z,22.50
2018-06-20T22:02:51.034Z,22.40
2018-06-20T22:05:20.061Z,22.30
2018-06-20T22:07:49.045Z,22.20
2018-06-20T22:10:18.012Z,22.20
2018-06-20T22:12:46.988Z,22.30
2018-06-20T22:17:44.510Z,22.10
2018-06-20T22:20:13.452Z,21.90
2018-06-20T22:22:42.384Z,21.90
2018-06-20T22:25:11.370Z,21.90
2018-06-20T22:27:40.316Z,21.90
2018-06-20T22:32:37.895Z,21.70
2018-06-20T22:37:35.390Z,21.70
2018-06-20T22:40:04.508Z,21.70
2018-06-20T22:42:33.465Z,21.70
2018-06-20T22:45:02.491Z,21.60
2018-06-20T22:47:31.488Z,21.60
2018-06-20T22:50:00.647Z,21.50
2018-06-20T22:52:29.639Z,21.50
2018-06-20T22:54:58.588Z,21.40
2018-06-20T22:57:27.538Z,21.40
2018-06-20T22:59:56.505Z,21.30
2018-06-20T23:02:25.486Z,21.20
2018-06-20T23:07:23.048Z,21.10
2018-06-20T23:09:52.068Z,21.00
2018-06-20T23:12:20.982Z,20.90
2018-06-20T23:14:49.952Z,20.80
2018-06-20T23:17:18.880Z,20.90
2018-06-20T23:19:47.874Z,21.00
2018-06-20T23:22:16.849Z,21.10
2018-06-20T23:24:45.771Z,21.10
2018-06-20T23:27:14.740Z,21.10
2018-06-20T23:29:43.673Z,21.00
2018-06-20T23:32:12.613Z,20.90
2018-06-20T23:34:41.540Z,20.90
2018-06-20T23:37:10.524Z,20.80
2018-06-20T23:39:39.479Z,20.80
2018-06-20T23:42:08.409Z,20.80
2018-06-20T23:44:37.379Z,20.90
2018-06-20T23:47:06.452Z,20.90
2018-06-20T23:49:35.420Z,20.90
2018-06-20T23:54:32.973Z,20.70
2018-06-20T23:57:01.895Z,20.80
